Terminal Aerodrome Forecast
Issued by NWS

Current Version | Previous Version | Graphics & Text | Print | Product List | Glossary On
Versions: 1 2 3 4 5 6 7 8 9 10 11 12 13 14 15 16
000
FTUS41 KILN 260500 RRA
TAFLUK
TAF
KLUK 260545Z 2606/2706 14008KT P6SM -SHRA OVC050
      TEMPO 2606/2608 2SM -TSRA BR OVC040CB
     FM260800 12009KT 3SM -SHRA BR VCTS SCT018 OVC040CB
     FM261200 33010G20KT 4SM -SHRA BR OVC018
     FM262000 32010G20KT 5SM BR OVC025
     FM262300 32013KT P6SM SCT040 BKN100=

USA.gov is the U.S. government's official web portal to all federal, state and local government web resources and services.